createdAt,value
2023-03-22T00:01:17.203Z,10.97
2023-03-22T00:03:45.099Z,10.77
2023-03-22T00:06:13.914Z,10.86
2023-03-22T00:08:41.725Z,11.05
2023-03-22T00:11:10.248Z,11.17
2023-03-22T00:13:38.186Z,11.31
2023-03-22T00:16:08.566Z,11.22
2023-03-22T00:18:36.398Z,11.43
2023-03-22T00:21:04.692Z,11.46
2023-03-22T00:23:33.021Z,11.39
2023-03-22T00:26:00.791Z,11.42
2023-03-22T00:28:29.136Z,11.51
2023-03-22T00:30:59.048Z,11.24
2023-03-22T00:33:30.432Z,11.44
2023-03-22T00:36:00.328Z,11.47
2023-03-22T00:38:42.014Z,11.53
2023-03-22T00:41:13.095Z,11.58
2023-03-22T00:43:41.135Z,11.23
2023-03-22T00:46:09.583Z,11.15
2023-03-22T00:48:39.129Z,11.65
2023-03-22T00:51:07.800Z,11.59
2023-03-22T00:53:39.332Z,11.48
2023-03-22T00:56:09.413Z,11.65
2023-03-22T00:58:45.613Z,11.42
2023-03-22T01:01:14.606Z,11.58
2023-03-22T01:03:44.881Z,11.23
2023-03-22T01:06:15.967Z,11.26
2023-03-22T01:08:43.965Z,11.56
2023-03-22T01:11:11.968Z,11.46
2023-03-22T01:13:41.636Z,11.44
2023-03-22T01:16:10.887Z,11.16
2023-03-22T01:18:38.926Z,10.88
2023-03-22T01:21:09.180Z,11.29
2023-03-22T01:23:37.059Z,11.11
2023-03-22T01:26:05.740Z,11.01
2023-03-22T01:28:33.749Z,10.89
2023-03-22T01:31:02.828Z,10.84
2023-03-22T01:33:30.781Z,11.09
2023-03-22T01:35:58.855Z,11.07
2023-03-22T01:38:28.785Z,10.92
2023-03-22T01:40:59.851Z,10.97
2023-03-22T01:43:30.330Z,10.98
2023-03-22T01:45:59.487Z,11.01
2023-03-22T01:48:33.653Z,11.20
2023-03-22T01:51:07.125Z,10.97
2023-03-22T01:53:45.527Z,10.98
2023-03-22T01:56:14.155Z,11.09
2023-03-22T01:58:43.008Z,11.18
2023-03-22T02:01:12.488Z,11.05
2023-03-22T02:03:51.051Z,11.19
2023-03-22T02:06:20.313Z,11.05
2023-03-22T02:08:58.343Z,11.27
2023-03-22T02:11:31.806Z,10.72
2023-03-22T02:14:16.625Z,10.81
2023-03-22T02:17:25.942Z,10.71
2023-03-22T02:20:43.781Z,10.99
2023-03-22T02:23:45.749Z,10.94
2023-03-22T02:26:39.235Z,10.67
2023-03-22T02:29:13.912Z,10.99
2023-03-22T02:32:11.697Z,11.06
2023-03-22T02:35:08.511Z,10.98
2023-03-22T02:37:54.203Z,10.93
2023-03-22T02:40:28.947Z,10.98
2023-03-22T02:43:02.293Z,10.88
2023-03-22T02:45:35.863Z,10.93
2023-03-22T02:48:09.676Z,10.82
2023-03-22T02:50:42.213Z,10.71
2023-03-22T02:53:18.456Z,10.97
2023-03-22T02:55:54.347Z,10.91
2023-03-22T02:58:26.521Z,10.96
2023-03-22T03:00:59.419Z,10.94
2023-03-22T03:03:30.537Z,10.93
2023-03-22T03:06:03.960Z,11.04
2023-03-22T03:08:32.345Z,10.92
2023-03-22T03:11:03.293Z,10.76
2023-03-22T03:13:31.890Z,10.76
2023-03-22T03:16:01.760Z,11.03
2023-03-22T03:18:44.619Z,11.17
2023-03-22T03:21:25.450Z,10.96
2023-03-22T03:24:00.572Z,10.95
2023-03-22T03:26:37.187Z,10.71
2023-03-22T03:29:12.636Z,10.63
2023-03-22T03:31:47.952Z,10.63
2023-03-22T03:34:20.719Z,10.41
2023-03-22T03:36:56.752Z,10.31
2023-03-22T03:39:28.381Z,10.50
2023-03-22T03:41:58.647Z,10.45
2023-03-22T03:44:28.521Z,10.31
2023-03-22T03:46:57.251Z,10.32
2023-03-22T03:49:27.121Z,10.20
2023-03-22T03:51:56.683Z,10.05
2023-03-22T03:54:25.117Z,10.13
2023-03-22T03:56:53.715Z,10.23
2023-03-22T03:59:22.914Z,10.01
2023-03-22T04:01:52.674Z,9.96
2023-03-22T04:04:34.709Z,9.87
2023-03-22T04:07:05.676Z,9.91
2023-03-22T04:09:38.383Z,9.94
2023-03-22T04:12:16.159Z,9.75
2023-03-22T04:14:55.856Z,9.78
2023-03-22T04:17:29.067Z,9.55
2023-03-22T04:19:57.448Z,9.73
2023-03-22T04:22:25.544Z,9.61
2023-03-22T04:24:53.854Z,9.45
2023-03-22T04:27:24.143Z,9.46
2023-03-22T04:30:01.060Z,9.57
2023-03-22T04:32:48.310Z,9.43
2023-03-22T04:35:18.616Z,9.40
2023-03-22T04:37:46.658Z,9.45
2023-03-22T04:40:18.004Z,9.41
2023-03-22T04:42:57.572Z,9.52
2023-03-22T04:46:01.766Z,9.47
2023-03-22T04:48:37.795Z,9.17
2023-03-22T04:51:06.309Z,9.53
2023-03-22T04:53:40.072Z,9.59
2023-03-22T04:56:11.500Z,9.54
2023-03-22T04:58:42.018Z,9.65
2023-03-22T05:01:12.895Z,9.41
2023-03-22T05:03:45.456Z,9.46
2023-03-22T05:06:13.440Z,9.59
2023-03-22T05:09:00.914Z,9.70
2023-03-22T05:11:29.290Z,9.64
2023-03-22T05:14:10.064Z,9.74
2023-03-22T05:16:41.332Z,9.58
2023-03-22T05:19:13.917Z,9.63
2023-03-22T05:21:45.155Z,9.65
2023-03-22T05:24:13.192Z,9.64
2023-03-22T05:26:42.800Z,9.88
2023-03-22T05:29:12.695Z,10.04
2023-03-22T05:32:11.465Z,9.89
2023-03-22T05:34:42.694Z,9.86
2023-03-22T05:37:36.641Z,9.76
2023-03-22T05:40:09.680Z,9.76
2023-03-22T05:42:39.776Z,9.93
2023-03-22T05:45:16.491Z,9.84
2023-03-22T05:47:50.483Z,9.80
2023-03-22T05:50:23.642Z,9.99
2023-03-22T05:52:52.353Z,10.10
2023-03-22T05:55:30.217Z,10.46
2023-03-22T05:58:01.292Z,10.58
2023-03-22T06:00:32.103Z,10.37
2023-03-22T06:03:36.504Z,10.33
2023-03-22T06:06:12.495Z,10.67
2023-03-22T06:08:52.153Z,10.58
2023-03-22T06:11:20.135Z,10.78
2023-03-22T06:13:48.063Z,10.75
2023-03-22T06:16:16.615Z,10.62
2023-03-22T06:18:46.081Z,10.87
2023-03-22T06:21:13.915Z,10.75
2023-03-22T06:23:43.757Z,10.85
2023-03-22T06:26:12.426Z,10.85
2023-03-22T06:28:42.235Z,11.09
2023-03-22T06:31:11.867Z,11.23
2023-03-22T06:34:04.210Z,11.00
2023-03-22T06:36:42.387Z,11.13
2023-03-22T06:39:17.804Z,11.22
2023-03-22T06:41:46.859Z,11.23
2023-03-22T06:44:15.487Z,10.96
2023-03-22T06:47:06.241Z,11.41
2023-03-22T06:49:51.812Z,11.40
2023-03-22T06:52:24.593Z,11.53
2023-03-22T06:54:52.970Z,11.19
2023-03-22T06:57:21.148Z,11.45
2023-03-22T06:59:49.028Z,11.20
2023-03-22T07:02:16.967Z,11.70
2023-03-22T07:05:07.053Z,11.15
2023-03-22T07:07:34.926Z,11.55
2023-03-22T07:10:03.412Z,11.30
2023-03-22T07:12:32.341Z,11.70
2023-03-22T07:15:05.646Z,11.62
2023-03-22T07:17:44.656Z,11.84
2023-03-22T07:20:14.073Z,11.73
2023-03-22T07:22:42.972Z,11.95
2023-03-22T07:25:11.056Z,11.63
2023-03-22T07:27:39.232Z,11.83
2023-03-22T07:30:09.756Z,11.86
2023-03-22T07:32:41.847Z,12.03
2023-03-22T07:35:16.715Z,11.64
2023-03-22T07:37:44.634Z,11.84
2023-03-22T07:40:22.121Z,11.59
2023-03-22T07:42:53.737Z,11.85
2023-03-22T07:45:37.281Z,11.99
2023-03-22T07:48:41.066Z,11.60
2023-03-22T07:51:48.810Z,12.30
2023-03-22T07:54:32.092Z,12.39
2023-03-22T07:57:01.302Z,12.26
2023-03-22T07:59:29.373Z,12.37
2023-03-22T08:01:57.423Z,11.82
2023-03-22T08:04:32.689Z,12.31
2023-03-22T08:07:20.388Z,12.49
2023-03-22T08:09:49.486Z,13.25
2023-03-22T08:12:17.421Z,13.70
2023-03-22T08:14:50.915Z,13.92
2023-03-22T08:17:23.600Z,13.65
2023-03-22T08:19:51.416Z,13.39
2023-03-22T08:22:30.145Z,12.99
2023-03-22T08:25:17.101Z,13.69
2023-03-22T08:27:45.859Z,13.07
2023-03-22T08:30:15.080Z,12.92
2023-03-22T08:32:44.309Z,12.93
2023-03-22T08:35:12.992Z,13.09
2023-03-22T08:37:42.872Z,13.22
2023-03-22T08:40:12.712Z,13.21
2023-03-22T08:42:47.725Z,12.87
2023-03-22T08:45:16.332Z,13.33
2023-03-22T08:47:50.839Z,13.39
2023-03-22T08:50:23.364Z,13.43
2023-03-22T08:53:00.597Z,13.63
2023-03-22T08:55:35.358Z,13.25
2023-03-22T08:58:12.914Z,13.32
2023-03-22T09:00:56.060Z,13.59
2023-03-22T09:03:46.464Z,14.11
2023-03-22T09:06:14.689Z,13.64
2023-03-22T09:08:45.606Z,14.00
2023-03-22T09:11:17.963Z,13.89
2023-03-22T09:13:47.689Z,13.60
2023-03-22T09:16:16.583Z,13.95
2023-03-22T09:18:46.179Z,13.85
2023-03-22T09:21:18.003Z,13.68
2023-03-22T09:24:08.786Z,13.89
2023-03-22T09:26:44.569Z,14.26
2023-03-22T09:29:12.457Z,14.28
2023-03-22T09:31:41.261Z,14.13
2023-03-22T09:34:17.873Z,14.51
2023-03-22T09:36:46.234Z,14.21
2023-03-22T09:39:16.552Z,14.87
2023-03-22T09:41:49.332Z,14.44
2023-03-22T09:44:23.273Z,14.46
2023-03-22T09:46:56.080Z,14.30
2023-03-22T09:49:27.973Z,14.55
2023-03-22T09:51:56.752Z,14.98
2023-03-22T09:54:34.394Z,14.97
2023-03-22T09:57:09.333Z,14.79
2023-03-22T09:59:46.596Z,14.68
2023-03-22T10:02:38.689Z,14.92
2023-03-22T10:05:15.328Z,15.14
2023-03-22T10:08:05.448Z,14.92
2023-03-22T10:10:34.795Z,14.76
2023-03-22T10:13:07.780Z,14.98
2023-03-22T10:15:39.308Z,15.26
2023-03-22T10:18:12.537Z,15.43
2023-03-22T10:20:47.870Z,15.49
2023-03-22T10:23:20.310Z,15.39
2023-03-22T10:25:53.095Z,15.22
2023-03-22T10:28:23.284Z,15.56
2023-03-22T10:30:55.345Z,16.13
2023-03-22T10:33:32.109Z,15.44
2023-03-22T10:36:02.188Z,15.79
2023-03-22T10:38:31.428Z,14.84
2023-03-22T10:41:01.823Z,15.68
2023-03-22T10:43:33.938Z,15.90
2023-03-22T10:46:05.050Z,15.79
2023-03-22T10:48:36.229Z,16.25
2023-03-22T10:51:04.536Z,16.05
2023-03-22T10:53:39.618Z,16.18
2023-03-22T10:56:13.979Z,15.55
2023-03-22T10:58:41.795Z,15.46
2023-03-22T11:01:11.608Z,15.80
2023-03-22T11:03:41.689Z,15.33
2023-03-22T11:06:12.205Z,14.98
2023-03-22T11:08:42.817Z,15.76
2023-03-22T11:11:20.332Z,15.60
2023-03-22T11:13:54.211Z,15.73
2023-03-22T11:16:22.413Z,16.03
2023-03-22T11:18:50.404Z,15.93
2023-03-22T11:21:19.703Z,16.42
2023-03-22T11:23:56.700Z,16.51
2023-03-22T11:26:34.687Z,17.45
2023-03-22T11:29:13.917Z,17.87
2023-03-22T11:31:56.126Z,16.57
2023-03-22T11:34:27.858Z,17.05
2023-03-22T11:36:57.806Z,17.40
2023-03-22T11:39:28.275Z,17.44
2023-03-22T11:42:01.193Z,17.79
2023-03-22T11:44:34.579Z,17.12
2023-03-22T11:47:05.297Z,17.22
2023-03-22T11:49:43.668Z,16.63
2023-03-22T11:52:16.655Z,16.44
2023-03-22T11:54:46.528Z,15.55
2023-03-22T11:57:19.139Z,15.35
2023-03-22T11:59:51.109Z,15.48
2023-03-22T12:02:24.010Z,15.11
2023-03-22T12:04:57.370Z,15.19
2023-03-22T12:07:27.715Z,15.49
2023-03-22T12:10:01.195Z,15.80
2023-03-22T12:12:33.942Z,15.02
2023-03-22T12:15:05.835Z,15.04
2023-03-22T12:17:39.622Z,14.82
2023-03-22T12:20:21.202Z,14.96
2023-03-22T12:22:52.689Z,15.19
2023-03-22T12:25:24.095Z,14.94
2023-03-22T12:27:56.088Z,15.44
2023-03-22T12:30:26.431Z,15.13
2023-03-22T12:33:02.591Z,15.01
2023-03-22T12:35:32.644Z,14.87
2023-03-22T12:38:08.091Z,14.71
2023-03-22T12:40:39.726Z,14.35
2023-03-22T12:43:16.245Z,14.11
2023-03-22T12:45:49.034Z,14.18
2023-03-22T12:48:20.717Z,13.61
2023-03-22T12:50:53.210Z,14.16
2023-03-22T12:53:23.924Z,14.29
2023-03-22T12:55:52.471Z,14.51
2023-03-22T12:58:24.653Z,14.12
2023-03-22T13:00:57.909Z,14.63
2023-03-22T13:03:40.273Z,14.33
2023-03-22T13:06:34.767Z,14.39
2023-03-22T13:09:15.694Z,14.67
2023-03-22T13:11:45.313Z,14.52
2023-03-22T13:14:35.523Z,15.02
2023-03-22T13:17:07.439Z,14.46
2023-03-22T13:19:37.716Z,14.27
2023-03-22T13:22:18.756Z,13.79
2023-03-22T13:25:01.680Z,14.11
2023-03-22T13:27:43.640Z,13.78
2023-03-22T13:30:22.906Z,13.62
2023-03-22T13:32:56.000Z,13.49
2023-03-22T13:35:28.315Z,13.21
2023-03-22T13:38:03.801Z,13.14
2023-03-22T13:40:37.738Z,13.52
2023-03-22T13:43:14.866Z,13.88
2023-03-22T13:46:10.907Z,13.76
2023-03-22T13:48:53.966Z,14.60
2023-03-22T13:51:30.272Z,13.91
2023-03-22T13:54:05.704Z,14.07
2023-03-22T13:56:49.776Z,13.88
2023-03-22T13:59:21.401Z,14.04
2023-03-22T14:01:53.569Z,13.96
2023-03-22T14:04:26.695Z,13.99
2023-03-22T14:06:59.075Z,13.99
2023-03-22T14:09:32.501Z,13.80
2023-03-22T14:12:07.159Z,13.94
2023-03-22T14:14:43.138Z,14.35
2023-03-22T14:17:21.554Z,14.53
2023-03-22T14:19:51.474Z,14.90
